Aérodrome :
LOGIN :

S'inscrire | Disclaimer

   EN    FR    IT 

 










Légende :    VFR   VFR Marginal   IFR   IFR Intensif   IFR Très Intensif
Visi : 
Plafond : 
>= 8 km
>= 3000ft
5 à 8 km
1000 à 3000 ft
1500m à 5 km
500 à 1000 ft
800 à 1500m
200 à 500 ft
< 800m
< 200 ft
Symboles :   Orages  Brouillard  Fortes neiges  Fortes précipitations  Vent > 20 kt
SIGMETs :   Divers  Orages  Givrage  Turbulence  Onde Orograph.  Cendres Volcan.







- Altitude de l'aérodrome : 1649 ft
- Code IATA : HHN


EDFH - Frankfurt-Hahn Rhineland-Palatinate

DERNIER METAR :
  • 180250Z 28009KT 8000 FEW003 BKN007 M01/M02 Q1014

METARs EXPIRÉS :
  • 180220Z 27011KT 9999 FEW002 BKN005 M01/M02 Q1013
  • 180150Z 27009KT 9999 BKN007 M01/M02 Q1013
  • 180120Z 27009KT 8000 -SN BKN007 M01/M02 Q1013
  • 180050Z 28010KT 260V320 9999 BKN008 M01/M02 Q1012
  • 180020Z 27011KT 9999 BKN010 M01/M02 Q1012
  • 172350Z 27010KT 9999 BKN013 M01/M02 Q1012

TAF TAF EDFH
Valide du 18 à 00h jusqu'au 19 à 00h UTC


172300Z 1800/1824 28008KT 9999 FEW015
PROB30
TEMPO 1800/1806 2000 SHSN BKN005CB
BECMG 1810/1814 VRB03KT
Pas de NOTAMs connus pour ce terrain.



MET'MAP, la Météo Aéronautique d'un coup d'oeil ! - Copyright ORBIFLY Décembre 2007 - Disclaimer

ORBIFLY MET'MAP TEAM :

Programmation & Développement : Alexandra Zaïnal
Conception & Développement : Baudouin d'Aumeries
Co-Programmation & Développement : Marc-Olivier Méhu
Soutien technique & logistique : Manuel Goepfert

Contact : metmap@orbifly.com




SOURCES & CREDITS :

   NOAA